Flight Track Log - Related Links

Times and Time Zones

All times are in EDT time to prevent confusion due to time zone crossing. See the N1BN flight status page for this flight to view local times or setup timezone preferences in your user account.

Time Position Orientation Groundspeed Altitude Reporting Facility
EDT Latitude Longitude Course Direction KTS MPH feet Rate Location/Type
Wed 10:49:02 AM 26.6789 -80.0233 270° West 198 228 3,900  Level Miami Center
Wed 10:50:02 AM 26.7297 -79.9967 25° Northeast 193 222 6,500 3,000 Climbing Miami Center
Wed 10:51:02 AM 26.8083 -80.0244 342° North 209 241 9,900 2,700 Climbing Miami Center
Wed 10:52:02 AM 26.8314 -80.1228 285° West 279 321 11,900 2,000 Climbing Miami Center
Wed 10:53:02 AM 26.8456 -80.2256 279° West 337 388 13,900 2,250 Climbing Miami Center
Wed 10:54:00 AM 26.9917 -80.7632 270° West  Level Estimated
Wed 10:54:02 AM 26.8722 -80.3358 285° West 365 420 16,400  Level Miami Center
Wed 10:55:02 AM 26.9025 -80.4647 285° West 380 437 19,100 2,550 Climbing Miami Center
Wed 10:56:02 AM 26.9331 -80.5822 286° West 386 444 21,500 2,400 Climbing Miami Center
Wed 10:57:02 AM 26.9611 -80.7044 284° West 397 457 23,900 2,300 Climbing Miami Center
Wed 10:58:02 AM 26.9894 -80.8147 286° West 406 467 26,100 2,100 Climbing Miami Center
Wed 10:59:02 AM 27.0214 -80.9417 286° West 411 473 28,100 1,950 Climbing Miami Center
Wed 11:00:02 AM 27.0511 -81.0733 284° West 424 488 30,000 1,950 Climbing Miami Center
Wed 11:01:02 AM 27.0828 -81.2075 285° West 434 499 32,000 2,150 Climbing Miami Center
Wed 11:02:02 AM 27.1100 -81.3392 283° West 439 505 34,300 2,650 Climbing Miami Center
Wed 11:03:02 AM 27.1353 -81.4636 283° West 421 484 37,300 2,150 Climbing Miami Center
Wed 11:04:02 AM 27.1628 -81.5839 284° West 404 465 38,600 1,350 Climbing Miami Center
Wed 11:05:02 AM 27.1897 -81.7156 283° West 399 459 40,000 1,200 Climbing Miami Center
Wed 11:06:02 AM 27.2169 -81.8381 284° West 400 460 41,000 1,100 Climbing Miami Center
Wed 11:07:02 AM 27.2417 -81.9606 283° West 405 466 42,200 1,000 Climbing Miami Center
Wed 11:08:02 AM 27.2631 -82.0689 283° West 397 457 43,000 400 Climbing Miami Center
Wed 11:09:02 AM 27.2897 -82.1917 284° West 397 457 43,000  Level Miami Center
Wed 11:10:02 AM 27.3181 -82.3283 283° West 397 457 43,000  Level Miami Center
Wed 11:11:02 AM 27.3425 -82.4533 282° West 403 464 43,000  Level Miami Center
Wed 11:12:02 AM 27.3689 -82.5786 283° West 409 471 43,000  Level Miami Center
Wed 11:13:02 AM 27.3872 -82.6917 280° West 414 476 43,000  Level Miami Center
Wed 11:14:02 AM 27.4156 -82.8147 285° West 414 476 43,000  Level Miami Center
Wed 11:15:02 AM 27.4433 -82.9542 283° West 414 476 43,000  Level Miami Center
Wed 11:16:02 AM 27.4692 -83.0794 283° West 414 476 43,000  Level Miami Center
Wed 11:17:02 AM 27.4931 -83.2047 282° West 414 476 43,000  Level Miami Center
Wed 11:18:02 AM 27.5186 -83.3325 283° West 414 476 43,000  Level Miami Center
Wed 11:19:02 AM 27.5422 -83.4553 282° West 414 476 43,000  Level Miami Center
Wed 11:20:02 AM 27.5697 -83.5833 284° West 414 476 43,000  Level Miami Center
Wed 11:21:02 AM 27.5931 -83.7089 282° West 414 476 43,000  Level Miami Center
Wed 11:22:02 AM 27.6183 -83.8319 283° West 414 476 43,000  Level Miami Center
Wed 11:23:02 AM 27.6372 -83.9572 280° West 414 476 43,000  Level Miami Center
Wed 11:24:02 AM 27.6622 -84.0828 283° West 414 476 43,000  Level Miami Center
Wed 11:25:43 AM 27.7064 -84.2778 284° West 410 472 43,000  Level Jacksonville Center
Wed 11:26:42 AM 27.7281 -84.4047 281° West 410 472 43,000  Level Jacksonville Center
Wed 11:27:42 AM 27.7514 -84.5292 282° West 410 472 43,000  Level Jacksonville Center
Wed 11:28:42 AM 27.7706 -84.6561 280° West 410 472 43,000  Level Jacksonville Center
Wed 11:29:43 AM 27.7961 -84.7761 284° West 410 472 43,000  Level Jacksonville Center
Wed 11:30:42 AM 27.8192 -84.9033 282° West 410 472 43,000  Level Jacksonville Center
Wed 11:31:43 AM 27.8422 -85.0258 282° West 410 472 43,000  Level Jacksonville Center
Wed 11:32:43 AM 27.8631 -85.1506 281° West 410 472 43,000  Level Jacksonville Center
Wed 11:33:43 AM 27.8900 -85.2781 283° West 410 472 43,000  Level Jacksonville Center
Wed 11:34:43 AM 27.9275 -85.3964 290° West 405 466 43,000  Level Jacksonville Center
Wed 11:35:42 AM 27.9625 -85.5217 288° West 405 466 43,000  Level Jacksonville Center
Wed 11:36:43 AM 27.9975 -85.6425 288° West 405 466 43,000  Level Jacksonville Center
Wed 11:37:43 AM 28.0344 -85.7658 289° West 405 466 43,000  Level Jacksonville Center
Wed 11:38:42 AM 28.0714 -85.8819 290° West 404 465 43,000  Level Jacksonville Center
Wed 11:39:43 AM 28.1081 -86.0078 288° West 404 465 43,000  Level Jacksonville Center
Wed 11:40:43 AM 28.1447 -86.1267 289° West 404 465 43,000 -50 Level Jacksonville Center
Wed 11:41:42 AM 28.1792 -86.2478 288° West 409 471 42,900  Descending Jacksonville Center
Wed 11:42:43 AM 28.2156 -86.3739 288° West 409 471 43,000 50 Climbing Jacksonville Center
Wed 11:43:43 AM 28.2519 -86.4906 290° West 409 471 43,000  Level Jacksonville Center
Wed 11:44:43 AM 28.2881 -86.6119 289° West 409 471 43,000  Level Jacksonville Center
Wed 11:45:43 AM 28.3203 -86.7264 288° West 403 464 43,000  Level Jacksonville Center
Wed 11:46:43 AM 28.3561 -86.8481 289° West 403 464 43,000  Level Jacksonville Center
Wed 11:47:43 AM 28.3900 -86.9672 288° West 403 464 43,000  Level Jacksonville Center
Wed 11:48:43 AM 28.4258 -87.0842 289° West 403 464 43,000  Level Jacksonville Center
Wed 11:49:15 AM 28.4439 -87.1494 287° West 400 460 43,000  Level Houston Center
Wed 11:50:17 AM 28.4792 -87.2706 288° West 400 460 43,000  Level Houston Center
Wed 11:51:19 AM 28.5128 -87.3881 288° West 399 459 43,000  Level Houston Center
Wed 11:52:21 AM 28.5472 -87.5083 288° West 396 456 43,000  Level Houston Center
Wed 11:53:23 AM 28.5817 -87.6281 288° West 400 460 43,000  Level Houston Center
Wed 11:54:25 AM 28.6156 -87.7472 288° West 398 458 43,000  Level Houston Center
Wed 11:55:28 AM 28.6561 -87.8906 288° West 396 456 43,000  Level Houston Center
Wed 11:56:30 AM 28.6897 -88.0094 288° West 394 453 43,000  Level Houston Center
Wed 11:57:32 AM 28.7231 -88.1208 289° West 392 451 43,000  Level Houston Center
Wed 11:58:34 AM 28.7742 -88.2322 298° West 396 456 43,000  Level Houston Center
Wed 11:59:36 AM 28.8375 -88.3661 298° West 396 456 43,000  Level Houston Center
Wed 12:00:38 PM 28.8886 -88.4758 298° West 397 457 43,000  Level Houston Center
Wed 12:01:40 PM 28.9408 -88.5872 298° West 395 455 43,000  Level Houston Center
Wed 12:02:43 PM 28.9931 -88.6981 298° West 399 459 43,000  Level Houston Center
Wed 12:03:45 PM 29.0450 -88.8097 298° West 395 455 43,000  Level Houston Center
Wed 12:04:47 PM 29.0956 -88.9181 298° West 391 450 43,000  Level Houston Center
Wed 12:05:49 PM 29.1572 -89.0508 298° West 395 455 43,000  Level Houston Center
Wed 12:06:51 PM 29.2089 -89.1622 298° West 394 453 43,000  Level Houston Center
Wed 12:07:53 PM 29.2600 -89.2731 298° West 394 453 43,000  Level Houston Center
Wed 12:08:55 PM 29.3108 -89.3836 298° West 389 448 43,000  Level Houston Center
Wed 12:09:57 PM 29.3619 -89.4947 298° West 390 449 43,000  Level Houston Center
Wed 12:11:00 PM 29.4125 -89.6047 298° West 392 451 43,000  Level Houston Center
Wed 12:12:02 PM 29.4722 -89.7364 298° West 386 444 43,000  Level Houston Center
Wed 12:13:04 PM 29.5219 -89.8456 298° West 388 447 43,000  Level Houston Center
Wed 12:14:06 PM 29.5722 -89.9561 298° West 391 450 43,000  Level Houston Center
Wed 12:15:08 PM 29.6222 -90.0675 297° West 388 447 43,000  Level Houston Center
Wed 12:16:10 PM 29.6725 -90.1781 298° West 394 453 43,000  Level Houston Center
Wed 12:17:12 PM 29.7222 -90.2889 297° West 392 451 43,000  Level Houston Center
Wed 12:22:30 PM 29.9943 -90.8989 297° West 391 450 43,000  Level FlightAware ADS-B
Wed 12:23:35 PM 30.0478 -91.0206 297° West 396 456 43,000  Level FlightAware ADS-B
Wed 12:24:14 PM 30.0797 -91.0930 297° West 395 455 43,000  Level FlightAware ADS-B
Wed 12:25:58 PM 30.1649 -91.2866 297° West 386 444 43,000  Level FlightAware ADS-B
Wed 12:26:38 PM 30.1971 -91.3598 297° West 386 444 43,000  Level FlightAware ADS-B
Wed 12:27:35 PM 30.2425 -91.4647 297° West 386 444 43,000  Level FlightAware ADS-B
Wed 12:28:12 PM 30.2724 -91.5326 297° West 388 447 43,000  Level FlightAware ADS-B
Wed 12:28:44 PM 30.2980 -91.5916 297° West 389 448 43,000  Level FlightAware ADS-B
Wed 12:29:39 PM 30.3423 -91.6937 297° West 388 447 43,000  Level FlightAware ADS-B
Wed 12:30:24 PM 30.3783 -91.7769 297° West 388 447 43,000  Level FlightAware ADS-B
Wed 12:30:55 PM 30.4033 -91.8348 297° West 387 445 43,000  Level FlightAware ADS-B
Wed 12:31:36 PM 30.4353 -91.9099 296° West 386 444 43,000  Level FlightAware ADS-B
Wed 12:32:06 PM 30.4596 -91.9662 297° West 388 447 43,000  Level FlightAware ADS-B
Wed 12:32:37 PM 30.4842 -92.0227 297° West 390 449 43,000  Level FlightAware ADS-B
Wed 12:33:10 PM 30.5108 -92.0847 296° West 389 448 43,000  Level FlightAware ADS-B
Wed 12:33:43 PM 30.5369 -92.1464 296° West 390 449 43,000  Level FlightAware ADS-B
Wed 12:34:14 PM 30.5614 -92.2033 297° West 389 448 43,000  Level FlightAware ADS-B
Wed 12:34:47 PM 30.5884 -92.2666 296° West 388 447 43,000  Level FlightAware ADS-B
Wed 12:35:43 PM 30.6325 -92.3707 296° West 387 445 43,000  Level FlightAware ADS-B
Wed 12:36:38 PM 30.6766 -92.4739 296° West 387 445 43,000  Level FlightAware ADS-B
Wed 12:37:25 PM 30.7146 -92.5628 296° West 394 453 43,000  Level FlightAware ADS-B
Wed 12:38:43 PM 30.7760 -92.7092 296° West 393 452 43,000  Level FlightAware ADS-B
Wed 12:39:24 PM 30.8088 -92.7865 296° West 394 453 43,000  Level FlightAware ADS-B
Wed 12:40:08 PM 30.8445 -92.8718 296° West 394 453 43,000  Level FlightAware ADS-B
Wed 12:40:42 PM 30.8714 -92.9358 296° West 395 455 43,000  Level FlightAware ADS-B
Wed 12:41:13 PM 30.8965 -92.9956 296° West 395 455 43,000  Level FlightAware ADS-B
Wed 12:42:12 PM 30.9425 -93.1057 296° West 389 448 43,000  Level FlightAware ADS-B
Wed 12:42:44 PM 30.9674 -93.1654 296° West 388 447 43,000  Level FlightAware ADS-B
Wed 12:43:24 PM 30.9989 -93.2408 296° West 390 449 43,000  Level FlightAware ADS-B
Wed 12:43:56 PM 31.0239 -93.3012 296° West 391 450 43,000  Level FlightAware ADS-B
Wed 12:44:26 PM 31.0475 -93.3584 296° West 395 455 43,000  Level FlightAware ADS-B
Wed 12:44:56 PM 31.0716 -93.4164 296° West 398 458 43,000  Level FlightAware ADS-B
Wed 12:45:26 PM 31.0955 -93.4746 296° West 395 455 43,000  Level FlightAware ADS-B
Wed 12:46:00 PM 31.1222 -93.5395 296° West 390 449 43,000  Level FlightAware ADS-B
Wed 12:46:31 PM 31.1464 -93.5978 296° West 387 445 43,000  Level FlightAware ADS-B
Wed 12:47:03 PM 31.1710 -93.6580 296° West 382 440 43,000  Level FlightAware ADS-B
Wed 12:47:34 PM 31.1941 -93.7145 296° West 378 435 43,000  Level FlightAware ADS-B
Wed 12:48:04 PM 31.2167 -93.7696 296° West 379 436 43,000  Level FlightAware ADS-B
Wed 12:48:39 PM 31.2428 -93.8334 296° West 382 440 43,000  Level FlightAware ADS-B
Wed 12:49:09 PM 31.2661 -93.8905 296° West 383 441 43,000  Level FlightAware ADS-B
Wed 12:49:40 PM 31.2896 -93.9479 296° West 390 449 43,000  Level FlightAware ADS-B
Wed 12:50:10 PM 31.3134 -94.0056 296° West 391 450 43,000  Level FlightAware ADS-B
Wed 12:50:43 PM 31.3389 -94.0685 295° West 392 451 43,000  Level FlightAware ADS-B
Wed 12:51:13 PM 31.3623 -94.1260 295° West 393 452 43,000  Level FlightAware ADS-B
Wed 12:51:45 PM 31.3875 -94.1879 296° West 394 453 43,000  Level FlightAware ADS-B
Wed 12:52:46 PM 31.4348 -94.3052 295° West 393 452 43,000  Level FlightAware ADS-B
Wed 12:53:18 PM 31.4599 -94.3669 296° West 394 453 43,000  Level FlightAware ADS-B
Wed 12:53:49 PM 31.4833 -94.4252 295° West 394 453 43,000  Level FlightAware ADS-B
Wed 12:54:19 PM 31.5065 -94.4835 295° West 395 455 43,000  Level FlightAware ADS-B
Wed 12:54:49 PM 31.5303 -94.5424 295° West 396 456 43,000  Level FlightAware ADS-B
Wed 12:55:19 PM 31.5539 -94.6011 295° West 398 458 43,000  Level FlightAware ADS-B
Wed 12:55:50 PM 31.5779 -94.6611 295° West 398 458 43,000  Level FlightAware ADS-B
Wed 12:56:20 PM 31.6014 -94.7202 295° West 400 460 43,000  Level FlightAware ADS-B
Wed 12:56:51 PM 31.6251 -94.7794 295° West 401 461 43,000  Level FlightAware ADS-B
Wed 12:57:25 PM 31.6517 -94.8465 295° West 399 459 43,000  Level FlightAware ADS-B
Wed 12:57:56 PM 31.6754 -94.9064 295° West 399 459 43,000  Level FlightAware ADS-B
Wed 12:58:26 PM 31.6991 -94.9660 295° West 400 460 43,000  Level FlightAware ADS-B
Wed 12:58:58 PM 31.7239 -95.0287 295° West 403 464 43,000  Level FlightAware ADS-B
Wed 12:59:28 PM 31.7476 -95.0886 295° West 402 463 43,000  Level FlightAware ADS-B
Wed 12:59:58 PM 31.7714 -95.1488 295° West 402 463 43,000  Level FlightAware ADS-B
Wed 01:00:31 PM 31.7969 -95.2135 295° West 404 465 43,000  Level FlightAware ADS-B
Wed 01:01:03 PM 31.8220 -95.2774 295° West 405 466 43,000  Level FlightAware ADS-B
Wed 01:01:34 PM 31.8457 -95.3384 295° West 402 463 43,000  Level FlightAware ADS-B
Wed 01:02:35 PM 31.8932 -95.4601 295° West 404 465 43,000  Level FlightAware ADS-B
Wed 01:03:22 PM 31.9293 -95.5526 295° West 403 464 43,000  Level FlightAware ADS-B
Wed 01:03:52 PM 31.9525 -95.6122 295° West 396 456 43,000  Level FlightAware ADS-B
Wed 01:04:22 PM 31.9756 -95.6720 294° West 397 457 43,000  Level FlightAware ADS-B
Wed 01:05:22 PM 32.0219 -95.7912 295° West 412 474 43,000  Level FlightAware ADS-B
Wed 01:05:54 PM 32.0473 -95.8560 295° West 419 482 43,000  Level FlightAware ADS-B
Wed 01:06:28 PM 32.0847 -95.9207 304° West 424 488 43,000  Level FlightAware ADS-B
Wed 01:06:58 PM 32.1201 -95.9755 307° West 418 481 43,000  Level FlightAware ADS-B
Wed 01:07:17 PM 32.1407 -96.0117 304° West 411 473 43,000  Level FlightAware ADS-B
Wed 01:07:25 PM 32.1480 -96.0277 298° West 407 468 43,000  Level FlightAware ADS-B
Wed 01:07:56 PM 32.1717 -96.0891 295° West 405 466 43,000  Level FlightAware ADS-B
Wed 01:08:27 PM 32.1957 -96.1508 295° West 402 463 43,000  Level FlightAware ADS-B
Wed 01:08:57 PM 32.2185 -96.2111 294° West 398 458 43,000  Level FlightAware ADS-B
Wed 01:09:27 PM 32.2412 -96.2708 294° West 398 458 43,000  Level FlightAware ADS-B
Wed 01:09:58 PM 32.2641 -96.3313 294° West 401 461 43,000  Level FlightAware ADS-B
Wed 01:10:29 PM 32.2882 -96.3948 294° West 406 467 43,000  Level FlightAware ADS-B
Wed 01:11:12 PM 32.3212 -96.4824 294° West 409 471 43,000  Level FlightAware ADS-B
Wed 01:11:45 PM 32.3463 -96.5492 294° West 404 465 43,000  Level FlightAware ADS-B
Wed 01:12:06 PM 32.3587 -96.5822 294° West 402 463 43,000  Level FlightAware ADS-B
Wed 01:12:16 PM 32.3696 -96.6111 294° West 401 461 43,000  Level FlightAware ADS-B
Wed 01:13:40 PM 32.4326 -96.7783 294° West 399 459 43,000  Level FlightAware ADS-B
Wed 01:14:20 PM 32.4625 -96.8582 294° West 399 459 43,000  Level FlightAware ADS-B
Wed 01:14:50 PM 32.4850 -96.9189 294° West 402 463 43,000  Level FlightAware ADS-B
Wed 01:15:23 PM 32.5097 -96.9853 294° West 402 463 43,000  Level FlightAware ADS-B
Wed 01:15:37 PM 32.5176 -97.0067 294° West 401 461 43,000  Level FlightAware ADS-B
Wed 01:16:10 PM 32.5446 -97.0792 294° West 400 460 43,000  Level FlightAware ADS-B
Wed 01:16:14 PM 32.5427 -97.0740 113° Southeast 401 461 43,000  Level FlightAware ADS-B
Wed 01:17:16 PM 32.5923 -97.2090 294° West 400 460 43,000  Level FlightAware ADS-B
Wed 01:18:05 PM 32.6251 -97.2978 294° West 397 457 43,000  Level FlightAware ADS-B
Wed 01:18:47 PM 32.6557 -97.3802 294° West 396 456 43,000  Level FlightAware ADS-B
Wed 01:19:24 PM 32.6829 -97.4550 293° West 396 456 43,000  Level FlightAware ADS-B
Wed 01:20:05 PM 32.7129 -97.5372 293° West 394 453 43,000  Level FlightAware ADS-B
Wed 01:20:47 PM 32.7407 -97.6132 294° West 393 452 43,000  Level FlightAware ADS-B
Wed 01:21:28 PM 32.7734 -97.7032 293° West 391 450 43,000  Level FlightAware ADS-B
Wed 01:22:05 PM 32.7995 -97.7745 294° West 388 447 43,000  Level FlightAware ADS-B
Wed 01:22:38 PM 32.8226 -97.8378 293° West 391 450 43,000  Level FlightAware ADS-B
Wed 01:23:16 PM 32.8494 -97.9037 296° West 395 455 43,000  Level FlightAware ADS-B
Wed 01:23:48 PM 32.8777 -97.9717 296° West 396 456 43,000  Level FlightAware ADS-B
Wed 01:24:25 PM 32.9070 -98.0422 296° West 399 459 43,000  Level FlightAware ADS-B
Wed 01:24:31 PM 32.9170 -98.0662 296° West 398 458 43,000  Level FlightAware ADS-B
Wed 01:25:06 PM 32.9430 -98.1284 296° West 400 460 43,000  Level FlightAware ADS-B
Wed 01:25:47 PM 32.9768 -98.2093 296° West 399 459 43,000  Level FlightAware ADS-B
Wed 01:26:28 PM 33.0102 -98.2896 296° West 398 458 43,000  Level FlightAware ADS-B
Wed 01:27:32 PM 33.0589 -98.4075 296° West 400 460 43,000  Level Fort Worth Center
Wed 01:28:32 PM 33.1122 -98.5319 297° West 395 455 43,000  Level Fort Worth Center
Wed 01:29:32 PM 33.1611 -98.6542 296° West 395 455 43,000  Level Fort Worth Center
Wed 01:30:32 PM 33.2100 -98.7717 296° West 400 460 43,000 600 Level Fort Worth Center
Wed 01:31:32 PM 33.2589 -98.8867 297° West 400 460 44,200 950 Climbing Fort Worth Center
Wed 01:32:32 PM 33.3033 -98.9992 295° West 390 449 44,900 400 Climbing Fort Worth Center
Wed 01:33:32 PM 33.3478 -99.1119 295° West 385 443 45,000 50 Climbing Fort Worth Center
Wed 01:34:32 PM 33.3942 -99.2222 297° West 385 443 45,000  Level Fort Worth Center
Wed 01:35:32 PM 33.4386 -99.3328 296° West 385 443 45,000  Level Fort Worth Center
Wed 01:36:32 PM 33.4847 -99.4483 296° West 380 437 45,000  Level Fort Worth Center
Wed 01:37:32 PM 33.5289 -99.5564 296° West 380 437 45,000  Level Fort Worth Center
Wed 01:38:32 PM 33.5728 -99.6697 295° West 380 437 45,000  Level Fort Worth Center
Wed 01:39:32 PM 33.6186 -99.7806 296° West 380 437 45,000  Level Fort Worth Center
Wed 01:40:32 PM 33.6647 -99.8917 297° West 375 432 45,000  Level Fort Worth Center
Wed 01:41:32 PM 33.7083 -100.0003 296° West 375 432 45,000  Level Fort Worth Center
Wed 01:42:32 PM 33.7497 -100.1114 294° West 370 426 45,000  Level Fort Worth Center
Wed 01:43:32 PM 33.7953 -100.2253 296° West 370 426 45,000  Level Fort Worth Center
Wed 01:44:32 PM 33.8367 -100.3342 295° West 370 426 45,000  Level Fort Worth Center
Wed 01:45:32 PM 33.8842 -100.4458 297° West 365 420 45,000  Level Fort Worth Center
Wed 01:46:32 PM 33.9250 -100.5622 293° West 365 420 45,000  Level Fort Worth Center
Wed 01:47:32 PM 33.9700 -100.6742 296° West 365 420 45,000  Level Fort Worth Center
Wed 01:48:32 PM 34.0131 -100.7861 295° West 365 420 45,000  Level Fort Worth Center
Wed 01:49:32 PM 34.0519 -100.8878 295° West 365 420 45,000  Level Fort Worth Center
Wed 01:50:32 PM 34.0928 -100.9972 294° West 365 420 45,000  Level Fort Worth Center
Wed 01:51:32 PM 34.1433 -101.1222 296° West 365 420 45,000  Level Fort Worth Center
Wed 01:53:11 PM 34.2053 -101.2883 294° West 364 419 45,000 112 Level Albuquerque Center
Wed 01:54:13 PM 34.2481 -101.4006 295° West 373 429 45,300 387 Climbing Albuquerque Center
Wed 01:55:15 PM 34.2994 -101.5364 295° West 372 428 45,800 339 Climbing Albuquerque Center
Wed 01:56:17 PM 34.3428 -101.6511 295° West 374 430 46,000 97 Climbing Albuquerque Center
Wed 01:57:19 PM 34.3861 -101.7667 294° West 378 435 46,000  Level Albuquerque Center
Wed 01:58:22 PM 34.4300 -101.8836 294° West 383 441 46,000  Level Albuquerque Center
Wed 01:59:24 PM 34.4733 -102.0006 294° West 380 437 46,000  Level Albuquerque Center
Wed 02:00:26 PM 34.5169 -102.1175 294° West 380 437 46,000  Level Albuquerque Center
Wed 02:01:28 PM 34.5689 -102.2581 294° West 377 434 46,000  Level Albuquerque Center
Wed 02:02:30 PM 34.6125 -102.3750 294° West 376 433 46,000  Level Albuquerque Center
Wed 02:03:32 PM 34.6558 -102.4925 294° West 381 438 46,000  Level Albuquerque Center
Wed 02:04:34 PM 34.6986 -102.6100 294° West 381 438 46,000  Level Albuquerque Center
Wed 02:05:36 PM 34.7425 -102.7297 294° West 387 445 46,000  Level Albuquerque Center
Wed 02:06:38 PM 34.7858 -102.8489 294° West 380 437 46,000  Level Albuquerque Center
Wed 02:07:40 PM 34.8292 -102.9683 294° West 382 440 46,000  Level Albuquerque Center
Wed 02:08:42 PM 34.8797 -103.1081 294° West 387 445 46,000  Level Albuquerque Center
Wed 02:09:44 PM 34.9236 -103.2303 294° West 397 457 46,000  Level Albuquerque Center
Wed 02:10:46 PM 34.9678 -103.3539 294° West 397 457 46,000  Level Albuquerque Center
Wed 02:11:48 PM 35.0117 -103.4772 294° West 398 458 46,000  Level Albuquerque Center
Wed 02:12:50 PM 35.0567 -103.6025 294° West 404 465 46,000  Level Albuquerque Center
Wed 02:13:53 PM 35.1014 -103.7286 293° West 401 461 46,000  Level Albuquerque Center
Wed 02:14:55 PM 35.1444 -103.8514 293° West 387 445 46,000  Level Albuquerque Center
Wed 02:15:57 PM 35.1892 -103.9778 293° West 394 453 46,000  Level Albuquerque Center
Wed 02:16:59 PM 35.2319 -104.1011 293° West 397 457 46,000  Level Albuquerque Center
Wed 02:18:01 PM 35.2842 -104.2519 293° West 410 472 46,000  Level Albuquerque Center
Wed 02:19:03 PM 35.3278 -104.3778 293° West 399 459 46,000  Level Albuquerque Center
Wed 02:20:05 PM 35.3731 -104.5083 293° West 391 450 46,000  Level Albuquerque Center
Wed 02:21:07 PM 35.4164 -104.6336 293° West 401 461 46,000  Level Albuquerque Center
Wed 02:22:09 PM 35.4597 -104.7603 293° West 403 464 46,000  Level Albuquerque Center
Wed 02:23:11 PM 35.5031 -104.8875 293° West 402 463 46,000  Level Albuquerque Center
Wed 02:24:13 PM 35.5467 -105.0167 293° West 409 471 46,000  Level Albuquerque Center
Wed 02:25:15 PM 35.5908 -105.1475 293° West 415 478 46,000  Level Albuquerque Center
Wed 02:26:17 PM 35.6347 -105.2781 293° West 411 473 46,000  Level Albuquerque Center
Wed 02:27:19 PM 35.6872 -105.4344 292° West 425 489 46,000  Level Albuquerque Center
Wed 02:28:21 PM 35.7242 -105.5444 293° West 417 480 46,000  Level Albuquerque Center
Wed 02:34:20 PM 35.6577 -105.3460 293° West 418 481 46,000  Level FlightAware ADS-B
Wed 02:38:23 PM 36.1680 -106.9082 292° West 439 505 46,000  Level FlightAware ADS-B
Wed 02:39:04 PM 36.1988 -107.0057 291° West 434 499 46,000  Level FlightAware ADS-B
Wed 02:39:44 PM 36.2278 -107.0981 291° West 430 495 46,000  Level FlightAware ADS-B
Wed 02:40:19 PM 36.2526 -107.1768 291° West 428 493 46,000  Level FlightAware ADS-B
Wed 02:40:58 PM 36.2810 -107.2671 291° West 431 496 46,000  Level FlightAware ADS-B
Wed 02:42:22 PM 36.3400 -107.4558 291° West 435 501 46,000  Level FlightAware ADS-B
Wed 02:43:02 PM 36.3705 -107.5534 291° West 441 507 46,000  Level FlightAware ADS-B
Wed 02:43:41 PM 36.3985 -107.6439 291° West 445 512 46,000  Level FlightAware ADS-B
Wed 02:44:13 PM 36.4219 -107.7185 291° West 439 505 46,000  Level FlightAware ADS-B
Wed 02:44:44 PM 36.4446 -107.7924 291° West 436 502 46,000  Level FlightAware ADS-B
Wed 02:45:14 PM 36.4661 -107.8626 291° West 440 506 46,000  Level FlightAware ADS-B
Wed 02:46:06 PM 36.5039 -107.9863 291° West 445 512 46,000  Level FlightAware ADS-B
Wed 02:46:37 PM 36.5271 -108.0621 291° West 445 512 46,000  Level FlightAware ADS-B (KGUC)
Wed 02:47:13 PM 36.5529 -108.1467 291° West 447 514 46,000  Level FlightAware ADS-B
Wed 02:47:44 PM 36.5751 -108.2200 291° West 446 513 46,000  Level FlightAware ADS-B
Wed 02:48:14 PM 36.5965 -108.2904 291° West 446 513 46,000  Level FlightAware ADS-B
Wed 02:48:46 PM 36.6199 -108.3679 291° West 445 512 46,000  Level FlightAware ADS-B
Wed 02:49:26 PM 36.6489 -108.4641 291° West 445 512 46,000  Level FlightAware ADS-B
Wed 02:49:57 PM 36.6712 -108.5381 291° West 443 510 46,000  Level FlightAware ADS-B
Wed 02:50:27 PM 36.6929 -108.6100 291° West 443 510 46,000  Level FlightAware ADS-B
Wed 02:51:02 PM 36.7177 -108.6927 291° West 439 505 46,000  Level FlightAware ADS-B
Wed 02:51:47 PM 36.7491 -108.7984 290° West 433 498 46,000  Level FlightAware ADS-B
Wed 02:52:17 PM 36.7702 -108.8699 290° West 438 504 46,000  Level FlightAware ADS-B
Wed 02:52:47 PM 36.7914 -108.9407 290° West 443 510 46,000  Level FlightAware ADS-B (KGUC)
Wed 02:53:17 PM 36.8127 -109.0128 290° West 442 509 46,000  Level FlightAware ADS-B (KGUC)
Wed 02:54:02 PM 36.8419 -109.1117 290° West 444 511 46,000  Level FlightAware ADS-B (KGUC)
Wed 02:54:36 PM 36.8053 -108.9875 110° East 447 514 46,000  Level FlightAware ADS-B
Wed 02:55:40 PM 36.9055 -109.3283 290° West 447 514 46,000  Level FlightAware ADS-B (KGUC)
Wed 02:56:32 PM 36.9154 -109.3621 290° West 447 514 46,000  Level FlightAware ADS-B (KGUC)
Wed 02:57:09 PM 36.9154 -109.3621 290° West 450 518 46,000  Level FlightAware ADS-B (KGUC)
Wed 02:58:28 PM 37.0323 -109.7664 290° West 449 517 46,000  Level FlightAware ADS-B (KGUC)
Wed 02:59:02 PM 37.0553 -109.8473 290° West 449 517 46,000  Level FlightAware ADS-B (KGUC)
Wed 02:59:50 PM 37.0891 -109.9663 290° West 449 517 46,000  Level FlightAware ADS-B (KGUC)
Wed 03:00:22 PM 37.1109 -110.0425 290° West 450 518 46,000  Level FlightAware ADS-B
Wed 03:00:53 PM 37.1325 -110.1181 290° West 453 521 46,000  Level FlightAware ADS-B
Wed 03:01:42 PM 37.1677 -110.2422 290° West 457 526 46,000  Level FlightAware ADS-B
Wed 03:02:14 PM 37.1886 -110.3162 289° West 456 525 46,000 194 Level FlightAware ADS-B
Wed 03:02:44 PM 37.2107 -110.3958 289° West 455 524 46,200 369 Climbing FlightAware ADS-B
Wed 03:03:19 PM 37.2348 -110.4820 289° West 458 527 46,400 358 Climbing FlightAware ADS-B
Wed 03:03:51 PM 37.2565 -110.5591 290° West 458 527 46,600 338 Climbing FlightAware ADS-B
Wed 03:04:30 PM 37.2775 -110.6369 290° West 454 522 46,800 238 Climbing Denver Center
Wed 03:05:32 PM 37.3197 -110.7869 290° West 456 525 47,000 97 Climbing Denver Center
Wed 03:06:34 PM 37.3614 -110.9372 289° West 456 525 47,000  Level Denver Center
Wed 03:12:42 PM 37.6223 -111.9042 289° West 466 536 47,000  Level FlightAware ADS-B
Wed 03:13:22 PM 37.6491 -112.0056 289° West 468 539 47,000  Level FlightAware ADS-B
Wed 03:14:04 PM 37.6777 -112.1137 288° West 464 534 47,000  Level FlightAware ADS-B
Wed 03:14:42 PM 37.7033 -112.2118 288° West 460 529 47,000  Level FlightAware ADS-B
Wed 03:15:17 PM 37.7264 -112.3006 288° West 456 525 47,000  Level FlightAware ADS-B
Wed 03:15:47 PM 37.7461 -112.3762 288° West 460 529 47,000  Level FlightAware ADS-B
Wed 03:16:24 PM 37.7708 -112.4710 288° West 461 531 47,000  Level FlightAware ADS-B
Wed 03:16:33 PM 37.7767 -112.4941 288° West 461 531 47,000  Level FlightAware ADS-B
Wed 03:16:57 PM 37.7925 -112.5550 288° West 461 531 47,000  Level FlightAware ADS-B
Wed 03:17:10 PM 37.8008 -112.5874 288° West 458 527 47,000  Level FlightAware ADS-B
Wed 03:17:50 PM 37.8270 -112.6899 288° West 458 527 47,000  Level FlightAware ADS-B
Wed 03:18:15 PM 37.8430 -112.7520 288° West 459 528 47,000  Level FlightAware ADS-B
Wed 03:18:23 PM 37.8483 -112.7727 288° West 457 526 47,000  Level FlightAware ADS-B
Wed 03:18:53 PM 37.8679 -112.8488 288° West 454 522 47,000  Level FlightAware ADS-B
Wed 03:19:03 PM 37.8747 -112.8760 288° West 454 522 47,000  Level FlightAware ADS-B
Wed 03:19:28 PM 37.8903 -112.9365 288° West 449 517 47,000  Level FlightAware ADS-B
Wed 03:20:03 PM 37.9126 -113.0242 288° West 446 513 47,000  Level FlightAware ADS-B
Wed 03:20:40 PM 37.9362 -113.1176 288° West 449 517 47,000  Level FlightAware ADS-B
Wed 03:21:13 PM 37.9542 -113.1889 288° West 456 525 47,000  Level FlightAware ADS-B
Wed 03:21:53 PM 37.9825 -113.3011 288° West 461 531 47,000  Level FlightAware ADS-B
Wed 03:23:24 PM 38.0395 -113.5293 288° West 458 527 47,000  Level FlightAware ADS-B
Wed 03:24:24 PM 38.0741 -113.6703 287° West 456 525 47,000  Level FlightAware ADS-B
Wed 03:25:04 PM 38.1039 -113.7912 287° West 459 528 47,000  Level FlightAware ADS-B
Wed 03:25:45 PM 38.1291 -113.8931 287° West 463 533 47,000  Level FlightAware ADS-B
Wed 03:27:46 PM 38.2050 -114.2076 287° West 452 520 47,000  Level FlightAware ADS-B
Wed 03:28:46 PM 38.2413 -114.3596 287° West 454 522 47,000  Level FlightAware ADS-B
Wed 03:29:49 PM 38.2431 -114.5039 287° West 461 531 47,000  Level Salt Lake Center
Wed 03:30:51 PM 38.2339 -114.6697 266° West 470 541 47,000  Level Salt Lake Center
Wed 03:31:53 PM 38.2228 -114.8339 265° West 468 539 47,000  Level Salt Lake Center
Wed 03:32:55 PM 38.2108 -115.0336 266° West 473 544 47,000  Level Salt Lake Center
Wed 03:33:56 PM 38.2008 -115.1994 266° West 472 543 47,000  Level Salt Lake Center
Wed 03:34:58 PM 38.1875 -115.3808 265° West 474 545 47,000  Level Salt Lake Center
Wed 03:36:00 PM 38.1764 -115.5456 265° West 471 542 47,000  Level Salt Lake Center
Wed 03:37:02 PM 38.1650 -115.7119 265° West 473 544 47,000  Level Salt Lake Center
Wed 03:38:04 PM 38.1531 -115.8797 265° West 476 548 47,000  Level Salt Lake Center
Wed 03:39:06 PM 38.1406 -116.0453 265° West 472 543 47,000  Level Salt Lake Center
Wed 03:40:08 PM 38.1269 -116.2128 264° West 474 545 47,000  Level Salt Lake Center
Wed 03:41:10 PM 38.1161 -116.3792 265° West 474 545 47,000  Level Salt Lake Center
Wed 03:42:12 PM 38.1003 -116.5800 264° West 475 547 47,000  Level Salt Lake Center
Wed 03:43:14 PM 38.0878 -116.7489 265° West 478 550 47,000  Level Salt Lake Center
Wed 03:44:07 PM 38.0775 -116.8836 265° West 479 551 47,000  Level Oakland Center
Wed 03:45:09 PM 38.0564 -117.0542 261° West 483 556 47,000  Level Oakland Center
Wed 03:46:10 PM 37.9975 -117.2183 246° West 496 571 47,000  Level Oakland Center
Wed 03:47:12 PM 37.9364 -117.3800 244° Southwest 499 574 47,000  Level Oakland Center
Wed 03:48:13 PM 37.8747 -117.5406 244° Southwest 503 579 47,000 -146 Level Oakland Center
Wed 03:49:15 PM 37.8142 -117.6975 244° Southwest 497 572 46,700 -732 Descending Oakland Center
Wed 03:50:16 PM 37.7531 -117.8578 244° Southwest 502 578 45,500 -1,366 Descending Oakland Center
Wed 03:51:18 PM 37.6786 -118.0486 244° Southwest 504 580 43,900 -1,452 Descending Oakland Center
Wed 03:52:20 PM 37.6203 -118.2089 245° Southwest 501 577 42,500 -1,415 Descending Oakland Center
Wed 03:53:21 PM 37.5858 -118.3769 256° West 493 567 41,000 -1,463 Descending Oakland Center
Wed 03:54:23 PM 37.5517 -118.5447 256° West 495 570 39,500 -1,463 Descending Oakland Center
Wed 03:55:24 PM 37.5169 -118.7094 255° West 490 564 38,000 -1,512 Descending Oakland Center
Wed 03:56:26 PM 37.4831 -118.8775 256° West 483 556 36,400 -1,512 Descending Oakland Center
Wed 03:57:27 PM 37.4483 -119.0356 255° West 473 544 34,900 -1,463 Descending Oakland Center
Wed 03:58:29 PM 37.4192 -119.1953 257° West 471 542 33,400 -1,452 Descending Oakland Center
Wed 03:59:31 PM 37.3931 -119.3536 258° West 466 536 31,900 -1,561 Descending Oakland Center
Wed 04:00:32 PM 37.3622 -119.5439 259° West 470 541 30,200 -1,805 Descending Oakland Center
Wed 04:01:34 PM 37.3381 -119.6994 259° West 454 522 28,200 -1,790 Descending Oakland Center
Wed 04:02:36 PM 37.3131 -119.8492 258° West 444 511 26,500 -1,645 Descending Oakland Center
Wed 04:03:38 PM 37.2869 -119.9981 258° West 439 505 24,800 -1,659 Descending Oakland Center
Wed 04:04:39 PM 37.2642 -120.1378 258° West 418 481 23,100 -1,721 Descending Oakland Center
Wed 04:05:40 PM 37.2414 -120.2742 258° West 402 463 21,300 -2,098 Descending Oakland Center
Wed 04:06:42 PM 37.2194 -120.4036 258° West 384 442 18,800 -2,468 Descending Oakland Center
Wed 04:07:44 PM 37.1900 -120.5344 254° West 387 445 16,200 -1,268 Descending Oakland Center
Wed 04:13:48 PM 37.0790 -121.2840 254° West 315 362 9,800 -967 Descending FlightAware ADS-B
Wed 04:14:21 PM 37.0724 -121.3420 262° West 301 346 9,800  Level FlightAware ADS-B
Wed 04:14:37 PM 37.0693 -121.3680 262° West 281 323 9,800 -774 Level FlightAware ADS-B
Wed 04:14:52 PM 37.0664 -121.3930 262° West 286 329 9,400 -1,313 Descending FlightAware ADS-B
Wed 04:15:09 PM 37.0633 -121.4200 262° West 283 326 9,100 -938 Descending FlightAware ADS-B
Wed 04:15:24 PM 37.0605 -121.4450 262° West 284 327 8,900 -938 Descending FlightAware ADS-B
Wed 04:15:41 PM 37.0576 -121.4720 262° West 283 326 8,600 -882 Descending FlightAware ADS-B
Wed 04:15:58 PM 37.0544 -121.5000 262° West 281 323 8,400 -727 Descending FlightAware ADS-B
Wed 04:16:14 PM 37.0514 -121.5260 262° West 282 325 8,200 -1,000 Descending FlightAware ADS-B
Wed 04:16:22 PM 37.0499 -121.5390 262° West 282 325 8,000 -1,125 Descending FlightAware ADS-B
Wed 04:16:30 PM 37.0500 -121.5520 271° West 280 322 7,900 -429 Descending FlightAware ADS-B
Wed 04:16:36 PM 37.0514 -121.5610 281° West 279 321 7,900 -667 Level FlightAware ADS-B
Wed 04:16:39 PM 37.0525 -121.5650 289° West 279 321 7,800 -857 Descending FlightAware ADS-B
Wed 04:16:43 PM 37.0545 -121.5710 293° West 277 319 7,800 -667 Level FlightAware ADS-B
Wed 04:16:48 PM 37.0577 -121.5790 297° West 278 320 7,700 -1,636 Descending FlightAware ADS-B
Wed 04:16:54 PM 37.0624 -121.5870 306° West 276 318 7,500 -1,636 Descending FlightAware ADS-B
Wed 04:16:59 PM 37.0664 -121.5920 315° West 274 315 7,400 -1,333 Descending FlightAware ADS-B
Wed 04:17:21 PM 37.0864 -121.6150 317° Northwest 270 311 6,900 -1,421 Descending FlightAware ADS-B
Wed 04:17:37 PM 37.1005 -121.6330 314° West 270 311 6,500 -1,125 Descending FlightAware ADS-B
Wed 04:17:53 PM 37.1111 -121.6550 301° West 269 310 6,300 -818 Descending FlightAware ADS-B
Wed 04:17:59 PM 37.1152 -121.6610 311° West 267 307 6,200 -1,385 Descending FlightAware ADS-B
Wed 04:18:06 PM 37.1217 -121.6690 316° Northwest 266 306 6,000 -1,385 Descending FlightAware ADS-B
Wed 04:18:12 PM 37.1272 -121.6740 324° Northwest 267 307 5,900 -1,286 Descending FlightAware ADS-B
Wed 04:18:20 PM 37.1353 -121.6820 322° Northwest 269 310 5,700 -1,304 Descending FlightAware ADS-B
Wed 04:18:35 PM 37.1495 -121.6970 320° Northwest 267 307 5,400 -1,400 Descending FlightAware ADS-B
Wed 04:18:50 PM 37.1639 -121.7130 318° Northwest 266 306 5,000 -1,600 Descending FlightAware ADS-B
Wed 04:19:05 PM 37.1780 -121.7280 320° Northwest 266 306 4,600 -1,548 Descending FlightAware ADS-B
Wed 04:19:21 PM 37.1928 -121.7440 319° Northwest 262 302 4,200 -1,543 Descending FlightAware ADS-B
Wed 04:19:40 PM 37.2100 -121.7630 319° Northwest 255 293 3,700 -1,371 Descending FlightAware ADS-B
Wed 04:19:56 PM 37.2229 -121.7770 319° Northwest 235 270 3,400 -1,125 Descending FlightAware ADS-B
Wed 04:20:12 PM 37.2356 -121.7910 319° Northwest 216 249 3,100 -1,286 Descending FlightAware ADS-B
Wed 04:20:24 PM 37.2446 -121.8010 319° Northwest 204 235 2,800 -1,241 Descending FlightAware ADS-B
Wed 04:20:41 PM 37.2558 -121.8130 320° Northwest 184 212 2,500 -938 Descending FlightAware ADS-B
Wed 04:20:56 PM 37.2653 -121.8230 320° Northwest 169 194 2,300 -800 Descending FlightAware ADS-B
Wed 04:21:11 PM 37.2736 -121.8320 319° Northwest 152 175 2,100 -774 Descending FlightAware ADS-B
Wed 04:21:27 PM 37.2818 -121.8410 319° Northwest 139 160 1,900 -882 Descending FlightAware ADS-B
Wed 04:21:45 PM 37.2898 -121.8500 318° Northwest 124 143 1,600 -686 Descending FlightAware ADS-B
Wed 04:22:02 PM 37.2969 -121.8580 318° Northwest 123 142 1,500 -649 Descending FlightAware ADS-B
Wed 04:22:22 PM 37.3059 -121.8680 319° Northwest 125 144 1,200 -833 Descending FlightAware ADS-B
Wed 04:22:38 PM 37.3125 -121.8750 320° Northwest 122 140 1,000 -545 Descending FlightAware ADS-B
Wed 04:22:55 PM 37.3198 -121.8830 319° Northwest 121 139 900 -632 Descending FlightAware ADS-B
Wed 04:23:16 PM 37.3287 -121.8930 318° Northwest 123 142 600 -769 Descending FlightAware ADS-B
Wed 04:23:34 PM 37.3365 -121.9010 321° Northwest 121 139 400 -462 Descending FlightAware ADS-B
Wed 04:24:08 PM 37.3489 -121.9167 321° Northwest 128 147 200 -353 Descending Oakland Center
Wed 04:26:00 PM 37.3500 -121.9167 North  Level FlightAware Approximate
Wed 04:33:00 PM 37.3627 -121.9291 North  Level Estimated

Login

Don't have an account? Register now (free) for customized features, flight alerts, and more!